sensor_id;sensor_type;location;lat;lon;timestamp;temperature;humidity
2729;DHT22;1372;47.956;7.830;2023-02-03T00:02:02;7.70;99.90
2729;DHT22;1372;47.956;7.830;2023-02-03T00:04:31;7.70;99.90
2729;DHT22;1372;47.956;7.830;2023-02-03T00:07:01;7.60;99.90
2729;DHT22;1372;47.956;7.830;2023-02-03T00:09:29;7.50;99.90
2729;DHT22;1372;47.956;7.830;2023-02-03T00:11:58;7.50;99.90
2729;DHT22;1372;47.956;7.830;2023-02-03T00:14:27;7.50;99.90
2729;DHT22;1372;47.956;7.830;2023-02-03T00:16:55;7.50;99.90
2729;DHT22;1372;47.956;7.830;2023-02-03T00:19:24;7.40;99.90
2729;DHT22;1372;47.956;7.830;2023-02-03T00:21:53;7.50;99.90
2729;DHT22;1372;47.956;7.830;2023-02-03T00:24:24;7.60;99.90
2729;DHT22;1372;47.956;7.830;2023-02-03T00:26:52;7.50;99.90
2729;DHT22;1372;47.956;7.830;2023-02-03T00:29:21;7.40;99.90
2729;DHT22;1372;47.956;7.830;2023-02-03T00:31:52;7.40;99.90
2729;DHT22;1372;47.956;7.830;2023-02-03T00:34:21;7.40;99.90
2729;DHT22;1372;47.956;7.830;2023-02-03T00:36:52;7.30;99.90
2729;DHT22;1372;47.956;7.830;2023-02-03T00:39:21;7.30;99.90
2729;DHT22;1372;47.956;7.830;2023-02-03T00:41:51;7.30;99.90
2729;DHT22;1372;47.956;7.830;2023-02-03T00:44:19;7.40;99.90
2729;DHT22;1372;47.956;7.830;2023-02-03T00:46:48;7.50;99.90
2729;DHT22;1372;47.956;7.830;2023-02-03T00:49:17;7.30;99.90
2729;DHT22;1372;47.956;7.830;2023-02-03T00:51:45;7.30;99.90
2729;DHT22;1372;47.956;7.830;2023-02-03T00:54:14;7.40;99.90
2729;DHT22;1372;47.956;7.830;2023-02-03T00:56:44;7.50;99.90
2729;DHT22;1372;47.956;7.830;2023-02-03T00:59:14;7.50;99.90
2729;DHT22;1372;47.956;7.830;2023-02-03T01:01:43;7.40;99.90
2729;DHT22;1372;47.956;7.830;2023-02-03T01:04:12;7.50;99.90
2729;DHT22;1372;47.956;7.830;2023-02-03T01:06:40;7.50;99.90
2729;DHT22;1372;47.956;7.830;2023-02-03T01:09:11;7.30;99.90
2729;DHT22;1372;47.956;7.830;2023-02-03T01:11:39;7.40;99.90
2729;DHT22;1372;47.956;7.830;2023-02-03T01:14:09;7.50;99.90
2729;DHT22;1372;47.956;7.830;2023-02-03T01:16:39;7.50;99.90
2729;DHT22;1372;47.956;7.830;2023-02-03T01:19:08;7.50;99.90
2729;DHT22;1372;47.956;7.830;2023-02-03T01:21:36;7.50;99.90
2729;DHT22;1372;47.956;7.830;2023-02-03T01:24:05;7.60;99.90
2729;DHT22;1372;47.956;7.830;2023-02-03T01:26:35;7.60;99.90
2729;DHT22;1372;47.956;7.830;2023-02-03T01:29:07;7.50;99.90
2729;DHT22;1372;47.956;7.830;2023-02-03T01:31:39;7.40;99.90
2729;DHT22;1372;47.956;7.830;2023-02-03T01:34:11;7.40;99.90
2729;DHT22;1372;47.956;7.830;2023-02-03T01:36:42;7.30;99.90
2729;DHT22;1372;47.956;7.830;2023-02-03T01:39:13;7.40;99.90
2729;DHT22;1372;47.956;7.830;2023-02-03T01:41:42;7.40;99.90
2729;DHT22;1372;47.956;7.830;2023-02-03T01:47:27;7.40;99.90
2729;DHT22;1372;47.956;7.830;2023-02-03T01:50:03;7.40;99.90
2729;DHT22;1372;47.956;7.830;2023-02-03T01:52:40;7.40;99.90
2729;DHT22;1372;47.956;7.830;2023-02-03T01:55:13;7.50;99.90
2729;DHT22;1372;47.956;7.830;2023-02-03T01:57:49;7.40;99.90
2729;DHT22;1372;47.956;7.830;2023-02-03T02:00:19;7.30;99.90
2729;DHT22;1372;47.956;7.830;2023-02-03T02:02:49;7.30;99.90
2729;DHT22;1372;47.956;7.830;2023-02-03T02:05:23;7.30;99.90
2729;DHT22;1372;47.956;7.830;2023-02-03T02:07:58;7.40;99.90
2729;DHT22;1372;47.956;7.830;2023-02-03T02:10:29;7.50;99.90
2729;DHT22;1372;47.956;7.830;2023-02-03T02:13:01;7.50;99.90
2729;DHT22;1372;47.956;7.830;2023-02-03T02:15:38;7.50;99.90
2729;DHT22;1372;47.956;7.830;2023-02-03T02:18:40;7.50;99.90
2729;DHT22;1372;47.956;7.830;2023-02-03T02:21:51;7.40;99.90
2729;DHT22;1372;47.956;7.830;2023-02-03T02:24:55;7.40;99.90
2729;DHT22;1372;47.956;7.830;2023-02-03T02:31:32;7.30;99.90
2729;DHT22;1372;47.956;7.830;2023-02-03T02:34:12;7.40;99.90
2729;DHT22;1372;47.956;7.830;2023-02-03T02:36:53;7.50;99.90
2729;DHT22;1372;47.956;7.830;2023-02-03T02:39:37;7.50;99.90
2729;DHT22;1372;47.956;7.830;2023-02-03T02:42:13;7.40;99.90
2729;DHT22;1372;47.956;7.830;2023-02-03T02:44:47;7.30;99.90
2729;DHT22;1372;47.956;7.830;2023-02-03T02:47:19;7.30;99.90
2729;DHT22;1372;47.956;7.830;2023-02-03T02:49:55;7.30;99.90
2729;DHT22;1372;47.956;7.830;2023-02-03T02:52:30;7.40;99.90
2729;DHT22;1372;47.956;7.830;2023-02-03T02:55:04;7.40;99.90
2729;DHT22;1372;47.956;7.830;2023-02-03T02:57:41;7.30;99.90
2729;DHT22;1372;47.956;7.830;2023-02-03T03:00:11;7.40;99.90
2729;DHT22;1372;47.956;7.830;2023-02-03T03:02:41;7.40;99.90
2729;DHT22;1372;47.956;7.830;2023-02-03T03:05:11;7.30;99.90
2729;DHT22;1372;47.956;7.830;2023-02-03T03:07:46;7.20;99.90
2729;DHT22;1372;47.956;7.830;2023-02-03T03:10:18;7.20;99.90
2729;DHT22;1372;47.956;7.830;2023-02-03T03:12:54;7.20;99.90
2729;DHT22;1372;47.956;7.830;2023-02-03T03:15:30;7.10;99.90
2729;DHT22;1372;47.956;7.830;2023-02-03T03:18:04;7.10;99.90
2729;DHT22;1372;47.956;7.830;2023-02-03T03:20:40;7.00;99.90
2729;DHT22;1372;47.956;7.830;2023-02-03T03:23:17;7.00;99.90
2729;DHT22;1372;47.956;7.830;2023-02-03T03:25:50;7.00;99.90
2729;DHT22;1372;47.956;7.830;2023-02-03T03:28:25;6.90;99.90
2729;DHT22;1372;47.956;7.830;2023-02-03T03:30:58;6.90;99.90
2729;DHT22;1372;47.956;7.830;2023-02-03T03:33:31;7.00;99.90
2729;DHT22;1372;47.956;7.830;2023-02-03T03:36:03;6.80;99.90
2729;DHT22;1372;47.956;7.830;2023-02-03T03:38:41;6.90;99.90
2729;DHT22;1372;47.956;7.830;2023-02-03T03:41:14;7.00;99.90
2729;DHT22;1372;47.956;7.830;2023-02-03T03:43:48;7.00;99.90
2729;DHT22;1372;47.956;7.830;2023-02-03T03:46:26;7.00;99.90
2729;DHT22;1372;47.956;7.830;2023-02-03T03:49:01;7.00;99.90
2729;DHT22;1372;47.956;7.830;2023-02-03T03:51:34;7.00;99.90
2729;DHT22;1372;47.956;7.830;2023-02-03T03:54:07;7.00;99.90
2729;DHT22;1372;47.956;7.830;2023-02-03T03:56:40;7.00;99.90
2729;DHT22;1372;47.956;7.830;2023-02-03T03:59:14;7.00;99.90
2729;DHT22;1372;47.956;7.830;2023-02-03T04:01:47;7.10;99.90
2729;DHT22;1372;47.956;7.830;2023-02-03T04:04:18;7.10;99.90
2729;DHT22;1372;47.956;7.830;2023-02-03T04:06:48;7.20;99.90
2729;DHT22;1372;47.956;7.830;2023-02-03T04:09:17;7.20;99.90
2729;DHT22;1372;47.956;7.830;2023-02-03T04:11:45;7.10;99.90
2729;DHT22;1372;47.956;7.830;2023-02-03T04:14:30;7.10;99.90
2729;DHT22;1372;47.956;7.830;2023-02-03T04:17:00;7.10;99.90
2729;DHT22;1372;47.956;7.830;2023-02-03T04:19:30;7.20;99.90
2729;DHT22;1372;47.956;7.830;2023-02-03T04:21:59;7.10;99.90
2729;DHT22;1372;47.956;7.830;2023-02-03T04:24:27;7.10;99.90
2729;DHT22;1372;47.956;7.830;2023-02-03T04:26:56;7.00;99.90
2729;DHT22;1372;47.956;7.830;2023-02-03T04:29:25;7.00;99.90
2729;DHT22;1372;47.956;7.830;2023-02-03T04:31:53;7.00;99.90
2729;DHT22;1372;47.956;7.830;2023-02-03T04:34:22;6.90;99.90
2729;DHT22;1372;47.956;7.830;2023-02-03T04:36:52;7.00;99.90
2729;DHT22;1372;47.956;7.830;2023-02-03T04:39:20;7.00;99.90
2729;DHT22;1372;47.956;7.830;2023-02-03T04:41:49;7.00;99.90
2729;DHT22;1372;47.956;7.830;2023-02-03T04:44:18;7.10;99.90
2729;DHT22;1372;47.956;7.830;2023-02-03T04:46:46;7.20;99.90
2729;DHT22;1372;47.956;7.830;2023-02-03T04:49:15;7.20;99.90
2729;DHT22;1372;47.956;7.830;2023-02-03T04:51:47;7.10;99.90
2729;DHT22;1372;47.956;7.830;2023-02-03T04:54:17;7.10;99.90
2729;DHT22;1372;47.956;7.830;2023-02-03T04:56:46;7.20;99.90
2729;DHT22;1372;47.956;7.830;2023-02-03T04:59:17;7.20;99.90
2729;DHT22;1372;47.956;7.830;2023-02-03T05:01:45;7.20;99.90
2729;DHT22;1372;47.956;7.830;2023-02-03T05:04:14;7.20;99.90
2729;DHT22;1372;47.956;7.830;2023-02-03T05:06:42;7.30;99.90
2729;DHT22;1372;47.956;7.830;2023-02-03T05:09:11;7.30;99.90
2729;DHT22;1372;47.956;7.830;2023-02-03T05:11:41;7.40;99.90
2729;DHT22;1372;47.956;7.830;2023-02-03T05:14:10;7.40;99.90
2729;DHT22;1372;47.956;7.830;2023-02-03T05:16:40;7.30;99.90
2729;DHT22;1372;47.956;7.830;2023-02-03T05:19:10;7.30;99.90
2729;DHT22;1372;47.956;7.830;2023-02-03T05:21:39;7.30;99.90
2729;DHT22;1372;47.956;7.830;2023-02-03T05:24:08;7.30;99.90
2729;DHT22;1372;47.956;7.830;2023-02-03T05:26:37;7.40;99.90
2729;DHT22;1372;47.956;7.830;2023-02-03T05:29:09;7.40;99.90
2729;DHT22;1372;47.956;7.830;2023-02-03T05:31:38;7.40;99.90
2729;DHT22;1372;47.956;7.830;2023-02-03T05:34:07;7.50;99.90
2729;DHT22;1372;47.956;7.830;2023-02-03T05:36:36;7.50;99.90
2729;DHT22;1372;47.956;7.830;2023-02-03T05:39:07;7.40;99.90
2729;DHT22;1372;47.956;7.830;2023-02-03T05:41:36;7.30;99.90
2729;DHT22;1372;47.956;7.830;2023-02-03T05:44:21;7.30;99.90
2729;DHT22;1372;47.956;7.830;2023-02-03T05:46:52;7.40;99.90
2729;DHT22;1372;47.956;7.830;2023-02-03T05:49:22;7.30;99.90
2729;DHT22;1372;47.956;7.830;2023-02-03T05:51:53;7.20;99.90
2729;DHT22;1372;47.956;7.830;2023-02-03T05:54:23;7.10;99.90
2729;DHT22;1372;47.956;7.830;2023-02-03T05:56:55;7.00;99.90
2729;DHT22;1372;47.956;7.830;2023-02-03T05:59:25;7.00;99.90
2729;DHT22;1372;47.956;7.830;2023-02-03T06:01:54;7.10;99.90
2729;DHT22;1372;47.956;7.830;2023-02-03T06:04:23;7.20;99.90
2729;DHT22;1372;47.956;7.830;2023-02-03T06:06:52;7.30;99.90
2729;DHT22;1372;47.956;7.830;2023-02-03T06:09:22;7.20;99.90
2729;DHT22;1372;47.956;7.830;2023-02-03T06:11:51;7.10;99.90
2729;DHT22;1372;47.956;7.830;2023-02-03T06:14:20;7.00;99.90
2729;DHT22;1372;47.956;7.830;2023-02-03T06:16:50;7.00;99.90
2729;DHT22;1372;47.956;7.830;2023-02-03T06:19:18;7.10;99.90
2729;DHT22;1372;47.956;7.830;2023-02-03T06:21:47;7.10;99.90
2729;DHT22;1372;47.956;7.830;2023-02-03T06:24:16;7.20;99.90
2729;DHT22;1372;47.956;7.830;2023-02-03T06:26:44;7.20;99.90
2729;DHT22;1372;47.956;7.830;2023-02-03T06:29:13;7.10;99.90
2729;DHT22;1372;47.956;7.830;2023-02-03T06:31:44;7.20;99.90
2729;DHT22;1372;47.956;7.830;2023-02-03T06:34:15;7.30;99.90
2729;DHT22;1372;47.956;7.830;2023-02-03T06:36:43;7.30;99.90
2729;DHT22;1372;47.956;7.830;2023-02-03T06:39:13;7.30;99.90
2729;DHT22;1372;47.956;7.830;2023-02-03T06:41:42;7.30;99.90
2729;DHT22;1372;47.956;7.830;2023-02-03T06:44:10;7.30;99.90
2729;DHT22;1372;47.956;7.830;2023-02-03T06:46:39;7.30;99.90
2729;DHT22;1372;47.956;7.830;2023-02-03T06:49:18;7.30;99.90
2729;DHT22;1372;47.956;7.830;2023-02-03T06:51:46;7.20;99.90
2729;DHT22;1372;47.956;7.830;2023-02-03T06:54:15;7.20;99.90
2729;DHT22;1372;47.956;7.830;2023-02-03T06:56:44;7.10;99.90
2729;DHT22;1372;47.956;7.830;2023-02-03T06:59:13;7.10;99.90
2729;DHT22;1372;47.956;7.830;2023-02-03T07:01:42;7.10;99.90
2729;DHT22;1372;47.956;7.830;2023-02-03T07:04:11;7.10;99.90
2729;DHT22;1372;47.956;7.830;2023-02-03T07:06:40;7.10;99.90
2729;DHT22;1372;47.956;7.830;2023-02-03T07:09:09;7.10;99.90
2729;DHT22;1372;47.956;7.830;2023-02-03T07:11:38;7.00;99.90
2729;DHT22;1372;47.956;7.830;2023-02-03T07:14:07;7.10;99.90
2729;DHT22;1372;47.956;7.830;2023-02-03T07:16:36;7.10;99.90
2729;DHT22;1372;47.956;7.830;2023-02-03T07:19:07;7.10;99.90
2729;DHT22;1372;47.956;7.830;2023-02-03T07:21:35;7.30;99.90
2729;DHT22;1372;47.956;7.830;2023-02-03T07:24:06;7.40;99.90
2729;DHT22;1372;47.956;7.830;2023-02-03T07:26:35;7.30;99.90
2729;DHT22;1372;47.956;7.830;2023-02-03T07:29:05;7.20;99.90
2729;DHT22;1372;47.956;7.830;2023-02-03T07:31:34;7.20;99.90
2729;DHT22;1372;47.956;7.830;2023-02-03T07:34:03;7.20;99.90
2729;DHT22;1372;47.956;7.830;2023-02-03T07:36:33;7.20;99.90
2729;DHT22;1372;47.956;7.830;2023-02-03T07:39:02;7.30;99.90
2729;DHT22;1372;47.956;7.830;2023-02-03T07:41:32;7.30;99.90
2729;DHT22;1372;47.956;7.830;2023-02-03T07:44:00;7.30;99.90
2729;DHT22;1372;47.956;7.830;2023-02-03T07:46:29;7.30;99.90
2729;DHT22;1372;47.956;7.830;2023-02-03T07:49:00;7.20;99.90
2729;DHT22;1372;47.956;7.830;2023-02-03T07:51:32;7.10;99.90
2729;DHT22;1372;47.956;7.830;2023-02-03T07:54:00;7.20;99.90
2729;DHT22;1372;47.956;7.830;2023-02-03T07:56:29;7.20;99.90
2729;DHT22;1372;47.956;7.830;2023-02-03T07:59:02;7.20;99.90
2729;DHT22;1372;47.956;7.830;2023-02-03T08:01:31;7.20;99.90
2729;DHT22;1372;47.956;7.830;2023-02-03T08:04:00;7.40;99.90
2729;DHT22;1372;47.956;7.830;2023-02-03T08:06:31;7.60;99.90
2729;DHT22;1372;47.956;7.830;2023-02-03T08:09:03;7.80;99.90
2729;DHT22;1372;47.956;7.830;2023-02-03T08:11:31;7.90;99.90
2729;DHT22;1372;47.956;7.830;2023-02-03T08:14:01;7.90;99.90
2729;DHT22;1372;47.956;7.830;2023-02-03T08:16:30;8.00;99.90
2729;DHT22;1372;47.956;7.830;2023-02-03T08:18:59;8.10;99.90
2729;DHT22;1372;47.956;7.830;2023-02-03T08:21:28;8.20;99.90
2729;DHT22;1372;47.956;7.830;2023-02-03T08:23:57;8.20;99.90
2729;DHT22;1372;47.956;7.830;2023-02-03T08:26:26;8.10;99.90
2729;DHT22;1372;47.956;7.830;2023-02-03T08:28:55;8.20;99.90
2729;DHT22;1372;47.956;7.830;2023-02-03T08:31:25;8.30;99.90
2729;DHT22;1372;47.956;7.830;2023-02-03T08:33:54;8.40;99.90
2729;DHT22;1372;47.956;7.830;2023-02-03T08:36:23;8.40;99.90
2729;DHT22;1372;47.956;7.830;2023-02-03T08:38:52;8.40;99.90
2729;DHT22;1372;47.956;7.830;2023-02-03T08:41:21;8.40;99.90
2729;DHT22;1372;47.956;7.830;2023-02-03T08:43:50;8.50;99.90
2729;DHT22;1372;47.956;7.830;2023-02-03T08:46:22;8.60;99.90
2729;DHT22;1372;47.956;7.830;2023-02-03T08:48:52;8.60;99.90
2729;DHT22;1372;47.956;7.830;2023-02-03T08:51:24;8.50;99.90
2729;DHT22;1372;47.956;7.830;2023-02-03T08:53:53;8.40;99.90
2729;DHT22;1372;47.956;7.830;2023-02-03T08:56:22;8.60;99.90
2729;DHT22;1372;47.956;7.830;2023-02-03T08:58:52;8.50;99.90
2729;DHT22;1372;47.956;7.830;2023-02-03T09:01:25;8.20;99.90
2729;DHT22;1372;47.956;7.830;2023-02-03T09:03:56;8.30;99.90
2729;DHT22;1372;47.956;7.830;2023-02-03T09:06:24;8.40;99.90
2729;DHT22;1372;47.956;7.830;2023-02-03T09:08:55;8.60;99.90
2729;DHT22;1372;47.956;7.830;2023-02-03T09:11:24;8.60;99.90
2729;DHT22;1372;47.956;7.830;2023-02-03T09:13:53;8.80;99.90
2729;DHT22;1372;47.956;7.830;2023-02-03T09:16:26;8.60;99.90
2729;DHT22;1372;47.956;7.830;2023-02-03T09:18:58;8.60;99.90
2729;DHT22;1372;47.956;7.830;2023-02-03T09:21:27;8.60;99.90
2729;DHT22;1372;47.956;7.830;2023-02-03T09:24:00;8.50;99.90
2729;DHT22;1372;47.956;7.830;2023-02-03T09:26:29;8.50;99.90
2729;DHT22;1372;47.956;7.830;2023-02-03T09:28:58;8.70;99.90
2729;DHT22;1372;47.956;7.830;2023-02-03T09:31:27;8.80;99.90
2729;DHT22;1372;47.956;7.830;2023-02-03T09:34:00;8.80;99.90
2729;DHT22;1372;47.956;7.830;2023-02-03T09:36:29;8.80;99.90
2729;DHT22;1372;47.956;7.830;2023-02-03T09:38:57;8.90;99.90
2729;DHT22;1372;47.956;7.830;2023-02-03T09:41:39;8.80;99.90
2729;DHT22;1372;47.956;7.830;2023-02-03T09:44:33;8.60;99.90
2729;DHT22;1372;47.956;7.830;2023-02-03T09:47:10;8.60;99.90
2729;DHT22;1372;47.956;7.830;2023-02-03T09:49:44;8.70;99.90
2729;DHT22;1372;47.956;7.830;2023-02-03T09:52:17;8.80;99.90
2729;DHT22;1372;47.956;7.830;2023-02-03T09:54:55;8.60;99.90
2729;DHT22;1372;47.956;7.830;2023-02-03T09:57:28;8.50;99.90
2729;DHT22;1372;47.956;7.830;2023-02-03T10:00:02;8.60;99.90
2729;DHT22;1372;47.956;7.830;2023-02-03T10:02:50;8.60;99.90
2729;DHT22;1372;47.956;7.830;2023-02-03T10:05:44;8.70;99.90
2729;DHT22;1372;47.956;7.830;2023-02-03T10:08:47;8.80;99.90
2729;DHT22;1372;47.956;7.830;2023-02-03T10:11:34;8.70;99.90
2729;DHT22;1372;47.956;7.830;2023-02-03T10:14:30;8.50;99.90
2729;DHT22;1372;47.956;7.830;2023-02-03T10:17:18;8.40;99.90
2729;DHT22;1372;47.956;7.830;2023-02-03T10:20:02;8.30;99.90
2729;DHT22;1372;47.956;7.830;2023-02-03T10:22:39;8.20;99.90
2729;DHT22;1372;47.956;7.830;2023-02-03T10:25:18;8.20;99.90
2729;DHT22;1372;47.956;7.830;2023-02-03T10:27:52;8.30;99.90
2729;DHT22;1372;47.956;7.830;2023-02-03T10:30:25;8.40;99.90
2729;DHT22;1372;47.956;7.830;2023-02-03T10:32:58;8.30;99.90
2729;DHT22;1372;47.956;7.830;2023-02-03T10:35:34;8.30;99.90
2729;DHT22;1372;47.956;7.830;2023-02-03T10:38:14;8.30;99.90
2729;DHT22;1372;47.956;7.830;2023-02-03T10:40:49;8.30;99.90
2729;DHT22;1372;47.956;7.830;2023-02-03T10:43:18;8.40;99.90
2729;DHT22;1372;47.956;7.830;2023-02-03T10:46:04;8.40;99.90
2729;DHT22;1372;47.956;7.830;2023-02-03T10:48:35;8.40;99.90
2729;DHT22;1372;47.956;7.830;2023-02-03T10:51:14;8.40;99.90
2729;DHT22;1372;47.956;7.830;2023-02-03T10:53:48;8.40;99.90
2729;DHT22;1372;47.956;7.830;2023-02-03T10:56:21;8.30;99.90
2729;DHT22;1372;47.956;7.830;2023-02-03T10:58:53;8.30;99.90
2729;DHT22;1372;47.956;7.830;2023-02-03T11:01:25;8.30;99.90
2729;DHT22;1372;47.956;7.830;2023-02-03T11:03:58;8.40;99.90
2729;DHT22;1372;47.956;7.830;2023-02-03T11:06:29;8.40;99.90
2729;DHT22;1372;47.956;7.830;2023-02-03T11:09:00;8.40;99.90
2729;DHT22;1372;47.956;7.830;2023-02-03T11:11:30;8.30;99.90
2729;DHT22;1372;47.956;7.830;2023-02-03T11:14:15;8.30;99.90
2729;DHT22;1372;47.956;7.830;2023-02-03T11:16:44;8.40;99.90
2729;DHT22;1372;47.956;7.830;2023-02-03T11:19:15;8.50;99.90
2729;DHT22;1372;47.956;7.830;2023-02-03T11:21:47;8.60;99.90
2729;DHT22;1372;47.956;7.830;2023-02-03T11:24:20;8.60;99.90
2729;DHT22;1372;47.956;7.830;2023-02-03T11:26:54;8.50;99.90
2729;DHT22;1372;47.956;7.830;2023-02-03T11:29:26;8.60;99.90
2729;DHT22;1372;47.956;7.830;2023-02-03T11:31:58;8.60;99.90
2729;DHT22;1372;47.956;7.830;2023-02-03T11:34:29;8.60;99.90
2729;DHT22;1372;47.956;7.830;2023-02-03T11:37:22;8.70;99.90
2729;DHT22;1372;47.956;7.830;2023-02-03T11:43:01;8.80;99.90
2729;DHT22;1372;47.956;7.830;2023-02-03T11:45:37;8.80;99.90
2729;DHT22;1372;47.956;7.830;2023-02-03T11:48:23;8.70;99.90
2729;DHT22;1372;47.956;7.830;2023-02-03T11:51:02;8.80;99.90
2729;DHT22;1372;47.956;7.830;2023-02-03T11:53:51;8.80;99.90
2729;DHT22;1372;47.956;7.830;2023-02-03T11:56:41;8.80;99.90
2729;DHT22;1372;47.956;7.830;2023-02-03T11:59:35;8.80;99.90
2729;DHT22;1372;47.956;7.830;2023-02-03T12:05:44;9.00;99.90
2729;DHT22;1372;47.956;7.830;2023-02-03T12:08:32;9.00;99.90
2729;DHT22;1372;47.956;7.830;2023-02-03T12:11:18;9.00;99.90
2729;DHT22;1372;47.956;7.830;2023-02-03T12:14:03;9.00;99.90
2729;DHT22;1372;47.956;7.830;2023-02-03T12:20:05;9.10;99.90
2729;DHT22;1372;47.956;7.830;2023-02-03T12:22:53;9.10;99.90
2729;DHT22;1372;47.956;7.830;2023-02-03T12:25:35;9.30;99.90
2729;DHT22;1372;47.956;7.830;2023-02-03T12:28:25;9.30;99.90
2729;DHT22;1372;47.956;7.830;2023-02-03T12:31:29;9.40;99.90
2729;DHT22;1372;47.956;7.830;2023-02-03T12:34:09;9.50;99.90
2729;DHT22;1372;47.956;7.830;2023-02-03T12:36:46;9.60;99.90
2729;DHT22;1372;47.956;7.830;2023-02-03T12:39:20;9.70;99.90
2729;DHT22;1372;47.956;7.830;2023-02-03T12:41:57;9.70;99.90
2729;DHT22;1372;47.956;7.830;2023-02-03T12:44:31;9.50;99.90
2729;DHT22;1372;47.956;7.830;2023-02-03T12:47:13;9.50;99.90
2729;DHT22;1372;47.956;7.830;2023-02-03T12:49:52;9.30;99.90
2729;DHT22;1372;47.956;7.830;2023-02-03T12:52:25;9.40;99.90
2729;DHT22;1372;47.956;7.830;2023-02-03T12:55:01;9.40;99.90
2729;DHT22;1372;47.956;7.830;2023-02-03T12:57:38;9.30;99.90
2729;DHT22;1372;47.956;7.830;2023-02-03T13:00:20;9.40;99.90
2729;DHT22;1372;47.956;7.830;2023-02-03T13:03:10;9.50;99.90
2729;DHT22;1372;47.956;7.830;2023-02-03T13:05:46;9.40;99.90
2729;DHT22;1372;47.956;7.830;2023-02-03T13:08:28;9.40;99.90
2729;DHT22;1372;47.956;7.830;2023-02-03T13:11:08;9.30;99.90
2729;DHT22;1372;47.956;7.830;2023-02-03T13:13:46;9.10;99.90
2729;DHT22;1372;47.956;7.830;2023-02-03T13:16:22;9.00;99.90
2729;DHT22;1372;47.956;7.830;2023-02-03T13:18:59;9.00;99.90
2729;DHT22;1372;47.956;7.830;2023-02-03T13:21:30;9.00;99.90
2729;DHT22;1372;47.956;7.830;2023-02-03T13:24:02;9.00;99.90
2729;DHT22;1372;47.956;7.830;2023-02-03T13:26:56;9.00;99.90
2729;DHT22;1372;47.956;7.830;2023-02-03T13:29:56;9.00;99.90
2729;DHT22;1372;47.956;7.830;2023-02-03T13:32:45;9.00;99.90
2729;DHT22;1372;47.956;7.830;2023-02-03T13:35:36;9.00;99.90
2729;DHT22;1372;47.956;7.830;2023-02-03T13:38:34;9.10;99.90
2729;DHT22;1372;47.956;7.830;2023-02-03T13:41:18;9.00;99.90
2729;DHT22;1372;47.956;7.830;2023-02-03T13:43:52;9.00;99.90
2729;DHT22;1372;47.956;7.830;2023-02-03T13:46:25;9.00;99.90
2729;DHT22;1372;47.956;7.830;2023-02-03T13:48:58;8.90;99.90
2729;DHT22;1372;47.956;7.830;2023-02-03T13:51:34;8.90;99.90
2729;DHT22;1372;47.956;7.830;2023-02-03T13:54:06;8.90;99.90
2729;DHT22;1372;47.956;7.830;2023-02-03T13:56:52;8.90;99.90
2729;DHT22;1372;47.956;7.830;2023-02-03T13:59:39;8.90;99.90
2729;DHT22;1372;47.956;7.830;2023-02-03T14:05:38;8.80;99.90
2729;DHT22;1372;47.956;7.830;2023-02-03T14:11:40;8.90;99.90
2729;DHT22;1372;47.956;7.830;2023-02-03T14:21:19;8.70;99.90
2729;DHT22;1372;47.956;7.830;2023-02-03T14:23:58;8.80;99.90
2729;DHT22;1372;47.956;7.830;2023-02-03T14:26:34;8.70;99.90
2729;DHT22;1372;47.956;7.830;2023-02-03T14:29:09;8.70;99.90
2729;DHT22;1372;47.956;7.830;2023-02-03T14:31:54;8.70;99.90
2729;DHT22;1372;47.956;7.830;2023-02-03T14:34:36;8.70;99.90
2729;DHT22;1372;47.956;7.830;2023-02-03T14:37:18;8.60;99.90
2729;DHT22;1372;47.956;7.830;2023-02-03T14:40:15;8.70;99.90
2729;DHT22;1372;47.956;7.830;2023-02-03T14:46:18;8.70;99.90
2729;DHT22;1372;47.956;7.830;2023-02-03T14:49:12;8.70;99.90
2729;DHT22;1372;47.956;7.830;2023-02-03T14:55:14;8.60;99.90
2729;DHT22;1372;47.956;7.830;2023-02-03T14:57:58;8.70;99.90
2729;DHT22;1372;47.956;7.830;2023-02-03T15:00:33;8.80;99.90
2729;DHT22;1372;47.956;7.830;2023-02-03T15:03:19;8.80;99.90
2729;DHT22;1372;47.956;7.830;2023-02-03T15:05:53;8.70;99.90
2729;DHT22;1372;47.956;7.830;2023-02-03T15:08:43;8.70;99.90
2729;DHT22;1372;47.956;7.830;2023-02-03T15:11:31;8.70;99.90
2729;DHT22;1372;47.956;7.830;2023-02-03T15:14:16;8.60;99.90
2729;DHT22;1372;47.956;7.830;2023-02-03T15:16:53;8.60;99.90
2729;DHT22;1372;47.956;7.830;2023-02-03T15:19:25;8.70;99.90
2729;DHT22;1372;47.956;7.830;2023-02-03T15:21:58;8.60;99.90
2729;DHT22;1372;47.956;7.830;2023-02-03T15:24:33;8.60;99.90
2729;DHT22;1372;47.956;7.830;2023-02-03T15:27:20;8.60;99.90
2729;DHT22;1372;47.956;7.830;2023-02-03T15:29:49;8.70;99.90
2729;DHT22;1372;47.956;7.830;2023-02-03T15:32:23;8.60;99.90
2729;DHT22;1372;47.956;7.830;2023-02-03T15:34:57;8.70;99.90
2729;DHT22;1372;47.956;7.830;2023-02-03T15:37:29;8.60;99.90
2729;DHT22;1372;47.956;7.830;2023-02-03T15:40:02;8.70;99.90
2729;DHT22;1372;47.956;7.830;2023-02-03T15:42:40;8.60;99.90
2729;DHT22;1372;47.956;7.830;2023-02-03T15:45:20;8.60;99.90
2729;DHT22;1372;47.956;7.830;2023-02-03T15:47:56;8.60;99.90
2729;DHT22;1372;47.956;7.830;2023-02-03T15:50:29;8.60;99.90
2729;DHT22;1372;47.956;7.830;2023-02-03T15:53:09;8.60;99.90
2729;DHT22;1372;47.956;7.830;2023-02-03T15:55:45;8.70;99.90
2729;DHT22;1372;47.956;7.830;2023-02-03T15:58:19;8.60;99.90
2729;DHT22;1372;47.956;7.830;2023-02-03T16:00:59;8.70;99.90
2729;DHT22;1372;47.956;7.830;2023-02-03T16:03:35;8.60;99.90
2729;DHT22;1372;47.956;7.830;2023-02-03T16:06:08;8.60;99.90
2729;DHT22;1372;47.956;7.830;2023-02-03T16:08:42;8.60;99.90
2729;DHT22;1372;47.956;7.830;2023-02-03T16:11:31;8.60;99.90
2729;DHT22;1372;47.956;7.830;2023-02-03T16:14:04;8.50;99.90
2729;DHT22;1372;47.956;7.830;2023-02-03T16:16:38;8.50;99.90
2729;DHT22;1372;47.956;7.830;2023-02-03T16:19:33;8.50;99.90
2729;DHT22;1372;47.956;7.830;2023-02-03T16:22:27;8.50;99.90
2729;DHT22;1372;47.956;7.830;2023-02-03T16:25:13;8.50;99.90
2729;DHT22;1372;47.956;7.830;2023-02-03T16:27:54;8.50;99.90
2729;DHT22;1372;47.956;7.830;2023-02-03T16:30:53;8.50;99.90
2729;DHT22;1372;47.956;7.830;2023-02-03T16:33:44;8.50;99.90
2729;DHT22;1372;47.956;7.830;2023-02-03T16:36:42;8.50;99.90
2729;DHT22;1372;47.956;7.830;2023-02-03T16:39:29;8.50;99.90
2729;DHT22;1372;47.956;7.830;2023-02-03T16:42:16;8.50;99.90
2729;DHT22;1372;47.956;7.830;2023-02-03T16:45:12;8.50;99.90
2729;DHT22;1372;47.956;7.830;2023-02-03T16:48:10;8.60;99.90
2729;DHT22;1372;47.956;7.830;2023-02-03T16:51:08;8.60;99.90
2729;DHT22;1372;47.956;7.830;2023-02-03T16:53:43;8.50;99.90
2729;DHT22;1372;47.956;7.830;2023-02-03T16:56:14;8.60;99.90
2729;DHT22;1372;47.956;7.830;2023-02-03T16:58:44;8.60;99.90
2729;DHT22;1372;47.956;7.830;2023-02-03T17:01:13;8.70;99.90
2729;DHT22;1372;47.956;7.830;2023-02-03T17:03:47;8.60;99.90
2729;DHT22;1372;47.956;7.830;2023-02-03T17:06:16;8.60;99.90
2729;DHT22;1372;47.956;7.830;2023-02-03T17:08:46;8.60;99.90
2729;DHT22;1372;47.956;7.830;2023-02-03T17:11:17;8.60;99.90
2729;DHT22;1372;47.956;7.830;2023-02-03T17:13:50;8.60;99.90
2729;DHT22;1372;47.956;7.830;2023-02-03T17:16:20;8.50;99.90
2729;DHT22;1372;47.956;7.830;2023-02-03T17:18:52;8.60;99.90
2729;DHT22;1372;47.956;7.830;2023-02-03T17:21:23;8.50;99.90
2729;DHT22;1372;47.956;7.830;2023-02-03T17:23:57;8.50;99.90
2729;DHT22;1372;47.956;7.830;2023-02-03T17:26:26;8.50;99.90
2729;DHT22;1372;47.956;7.830;2023-02-03T17:28:55;8.60;99.90
2729;DHT22;1372;47.956;7.830;2023-02-03T17:31:29;8.60;99.90
2729;DHT22;1372;47.956;7.830;2023-02-03T17:34:00;8.60;99.90
2729;DHT22;1372;47.956;7.830;2023-02-03T17:36:31;8.60;99.90
2729;DHT22;1372;47.956;7.830;2023-02-03T17:39:00;8.60;99.90
2729;DHT22;1372;47.956;7.830;2023-02-03T17:41:51;8.70;99.90
2729;DHT22;1372;47.956;7.830;2023-02-03T17:44:37;8.70;99.90